TXKF/BDA METAR and TAF weather

Enter ICAO airport designator
Station Type Date Time Source
TXKF METAR 2019/05/20 10:55 UTC NOAA

TXKF 201055Z 04004KT 010V070 9999 FEW012 BKN300 22/20 Q1021


Station Type Date Time Source
TXKF Decoded METAR 2019/05/20 10:55 UTC NOAA

Bermuda, Bermuda (TXKF) 32-22N 064-41W
May 20, 2019 - 06:55 AM EDT / 2019.05.20 1055 UTC
Wind: from the NE (040 degrees) at 5 MPH (4 KT) (direction variable):0
Visibility: greater than 7 mile(s):0
Sky conditions: mostly cloudy
Temperature: 71 F (22 C)
Dew Point: 68 F (20 C)
Relative Humidity: 88%
Pressure (altimeter): 30.15 in. Hg (1021 hPa)
ob: TXKF 201055Z 04004KT 010V070 9999 FEW012 BKN300 22/20 Q1021
cycle: 11

Station Type Date Time Source
TXKF TAF 2019/05/20 06:45 UTC NOAA

TAF TXKF 200538Z 2006/2106 VRB05KT 9999 SCT014 BKN300
TEMPO 2006/2024 6000 -SHRA SCT008 BKN014 PROB30
TEMPO 2014/2020 13010KT BKN008
BECMG 2022/2024 10010KT SCT014 BKN070 OVC300

Example: see airport list